Time;durP1;ratioP1;P1;durP2;ratioP2;P2;SDS_P1;SDS_P2;PMS_P1;PMS_P2;Temp;Humidity;BMP_temperature;BMP_pressure;BME280_temperature;BME280_humidity;BME280_pressure;Samples;Min_cycle;Max_cycle;Signal;HPM_P1;HPM_P2
2022/12/04 00:00:06;;;;;;;46.40;28.80;;;;;;;;;;5034686;28;20484;-81
2022/12/04 00:02:32;;;;;;;43.90;27.23;;;;;;;;;;5051251;28;20029;-81
2022/12/04 00:04:58;;;;;;;42.80;27.90;;;;;;;;;;5034710;28;20032;-81
2022/12/04 00:07:25;;;;;;;45.38;28.98;;;;;;;;;;5028234;28;20033;-81
2022/12/04 00:09:51;;;;;;;40.65;25.40;;;;;;;;;;5033184;28;20026;-81
2022/12/04 00:12:17;;;;;;;48.17;30.10;;;;;;;;;;5033894;28;20037;-81
2022/12/04 00:14:43;;;;;;;43.72;26.23;;;;;;;;;;5022113;28;20112;-81
2022/12/04 00:17:09;;;;;;;42.13;27.63;;;;;;;;;;5031103;28;20045;-81
2022/12/04 00:19:35;;;;;;;46.00;28.63;;;;;;;;;;5029309;28;20029;-81
2022/12/04 00:22:01;;;;;;;41.60;26.80;;;;;;;;;;5029466;28;20033;-81
2022/12/04 00:24:27;;;;;;;41.78;27.55;;;;;;;;;;5034067;28;20040;-81
2022/12/04 00:26:53;;;;;;;42.30;28.80;;;;;;;;;;5033777;28;20036;-81
2022/12/04 00:29:19;;;;;;;40.63;25.95;;;;;;;;;;5028311;28;20030;-81
2022/12/04 00:31:45;;;;;;;39.63;26.02;;;;;;;;;;5030518;28;20057;-81
2022/12/04 00:34:11;;;;;;;40.83;25.20;;;;;;;;;;5049161;28;20136;-81
2022/12/04 00:36:37;;;;;;;39.58;25.15;;;;;;;;;;5027141;28;20125;-81
2022/12/04 00:39:04;;;;;;;39.05;24.92;;;;;;;;;;5029493;28;20063;-81
2022/12/04 00:41:31;;;;;;;48.67;29.88;;;;;;;;;;5033624;28;20403;-81
2022/12/04 00:43:57;;;;;;;42.17;27.23;;;;;;;;;;5033211;28;20033;-81
2022/12/04 00:46:23;;;;;;;47.22;27.65;;;;;;;;;;5033636;28;20041;-81
2022/12/04 00:48:50;;;;;;;48.47;29.48;;;;;;;;;;5032902;28;20072;-81
2022/12/04 00:51:18;;;;;;;44.33;27.20;;;;;;;;;;5033100;28;20032;-81
2022/12/04 00:53:44;;;;;;;44.83;27.30;;;;;;;;;;5032075;28;20395;-81
2022/12/04 00:56:12;;;;;;;45.13;29.27;;;;;;;;;;5033189;28;20131;-81
2022/12/04 00:58:38;;;;;;;43.50;27.40;;;;;;;;;;5027975;28;20068;-81
2022/12/04 01:01:09;;;;;;;43.88;27.05;;;;;;;;;;5033212;28;20029;-81
2022/12/04 01:03:35;;;;;;;40.88;25.50;;;;;;;;;;5026881;28;20087;-81
2022/12/04 01:06:02;;;;;;;41.92;25.83;;;;;;;;;;5022447;28;20106;-81
2022/12/04 01:08:28;;;;;;;41.72;27.92;;;;;;;;;;5043630;28;20029;-81
2022/12/04 01:10:54;;;;;;;43.25;28.30;;;;;;;;;;5032600;28;20522;-81
2022/12/04 01:13:20;;;;;;;44.20;27.70;;;;;;;;;;5032391;28;20037;-81
2022/12/04 01:15:47;;;;;;;40.50;26.73;;;;;;;;;;5032979;28;20037;-81
2022/12/04 01:18:14;;;;;;;41.92;27.20;;;;;;;;;;5032565;28;20044;-81
2022/12/04 01:20:40;;;;;;;45.33;27.85;;;;;;;;;;5033496;28;20498;-81
2022/12/04 01:23:06;;;;;;;41.67;27.63;;;;;;;;;;5030201;28;20033;-80
2022/12/04 01:25:32;;;;;;;39.97;25.88;;;;;;;;;;5033143;28;20036;-81
2022/12/04 01:27:58;;;;;;;41.22;25.38;;;;;;;;;;5031063;28;20518;-81
2022/12/04 01:30:24;;;;;;;36.83;23.23;;;;;;;;;;5032856;28;20067;-81
2022/12/04 01:32:50;;;;;;;40.55;26.38;;;;;;;;;;5032931;28;20079;-81
2022/12/04 01:35:16;;;;;;;41.88;25.40;;;;;;;;;;5032839;28;20025;-81
2022/12/04 01:37:42;;;;;;;38.58;24.40;;;;;;;;;;5032576;28;20029;-81
2022/12/04 01:40:12;;;;;;;39.00;25.15;;;;;;;;;;5032943;28;20033;-81
2022/12/04 01:42:38;;;;;;;36.63;25.20;;;;;;;;;;5032037;28;20044;-81
2022/12/04 01:45:23;;;;;;;42.40;25.38;;;;;;;;;;5032945;28;20032;-80
2022/12/04 01:47:49;;;;;;;37.47;22.95;;;;;;;;;;5032248;28;20053;-81
2022/12/04 01:50:15;;;;;;;45.95;30.75;;;;;;;;;;5044813;28;20075;-81
2022/12/04 01:52:42;;;;;;;44.28;29.25;;;;;;;;;;5032164;28;20800;-81
2022/12/04 01:55:08;;;;;;;45.42;28.42;;;;;;;;;;5032644;28;20033;-81
2022/12/04 01:57:35;;;;;;;43.78;28.85;;;;;;;;;;5032280;28;20045;-81
2022/12/04 02:00:06;;;;;;;46.08;28.30;;;;;;;;;;5031753;28;20052;-81
2022/12/04 02:02:33;;;;;;;42.38;26.20;;;;;;;;;;5032415;28;20064;-81
2022/12/04 02:05:01;;;;;;;39.30;23.50;;;;;;;;;;5032276;28;20071;-81
2022/12/04 02:07:27;;;;;;;41.20;27.35;;;;;;;;;;5032070;28;20045;-81
2022/12/04 02:09:54;;;;;;;41.15;25.92;;;;;;;;;;5029235;28;20029;-81
2022/12/04 02:12:31;;;;;;;44.70;27.77;;;;;;;;;;5031081;28;20037;-81
2022/12/04 02:15:06;;;;;;;46.35;28.00;;;;;;;;;;5045800;28;20033;-81
2022/12/04 02:17:32;;;;;;;40.58;26.40;;;;;;;;;;5031975;28;20041;-81
2022/12/04 02:20:08;;;;;;;44.03;27.63;;;;;;;;;;5028796;28;20091;-81
2022/12/04 02:22:40;;;;;;;40.00;26.33;;;;;;;;;;5021100;28;20103;-81
2022/12/04 02:25:25;;;;;;;39.97;23.90;;;;;;;;;;5040478;28;20838;-81
2022/12/04 02:28:03;;;;;;;45.60;28.13;;;;;;;;;;5031314;28;20040;-81
2022/12/04 02:30:30;;;;;;;42.17;25.88;;;;;;;;;;5016876;28;20061;-81
2022/12/04 02:33:14;;;;;;;39.17;25.17;;;;;;;;;;5030436;28;20033;-81
2022/12/04 02:35:42;;;;;;;42.47;28.08;;;;;;;;;;5031928;28;20037;-81
2022/12/04 02:38:08;;;;;;;46.72;28.05;;;;;;;;;;5026941;28;20395;-81
2022/12/04 02:40:40;;;;;;;41.78;25.80;;;;;;;;;;5031768;28;20040;-81
2022/12/04 02:43:25;;;;;;;44.50;27.38;;;;;;;;;;5031265;28;20037;-81
2022/12/04 02:45:56;;;;;;;45.17;29.63;;;;;;;;;;5031038;28;20036;-81
2022/12/04 02:48:23;;;;;;;44.05;28.75;;;;;;;;;;5049753;28;20037;-81
2022/12/04 02:50:52;;;;;;;43.88;27.58;;;;;;;;;;5026199;28;20060;-81
2022/12/04 02:53:24;;;;;;;42.80;25.80;;;;;;;;;;5029795;28;20033;-81
2022/12/04 02:55:55;;;;;;;41.43;25.83;;;;;;;;;;5022421;28;20037;-81
2022/12/04 02:58:25;;;;;;;46.38;29.73;;;;;;;;;;5027695;28;20061;-81
2022/12/04 03:00:53;;;;;;;43.30;27.75;;;;;;;;;;5019857;28;20029;-81
2022/12/04 03:03:26;;;;;;;45.53;27.75;;;;;;;;;;5050420;23;20054;-81
2022/12/04 03:06:04;;;;;;;42.22;26.90;;;;;;;;;;5028495;28;20033;-81
2022/12/04 03:08:59;;;;;;;40.42;25.95;;;;;;;;;;5027774;28;20030;-81
2022/12/04 03:11:28;;;;;;;43.50;28.50;;;;;;;;;;5012933;28;20045;-81
2022/12/04 03:14:03;;;;;;;44.88;28.35;;;;;;;;;;5025909;28;20034;-81
2022/12/04 03:16:31;;;;;;;44.45;26.38;;;;;;;;;;5028252;28;20036;-81
2022/12/04 03:19:07;;;;;;;42.28;28.58;;;;;;;;;;5038168;28;20041;-81
2022/12/04 03:21:37;;;;;;;44.78;27.98;;;;;;;;;;5025583;28;20057;-81
2022/12/04 03:24:23;;;;;;;40.63;24.90;;;;;;;;;;5036231;28;20046;-81
2022/12/04 03:27:09;;;;;;;40.38;25.77;;;;;;;;;;5010821;28;20052;-81
2022/12/04 03:29:42;;;;;;;42.50;25.02;;;;;;;;;;5026714;28;20067;-81
2022/12/04 03:32:11;;;;;;;40.70;23.63;;;;;;;;;;5027352;28;20036;-81
2022/12/04 03:35:10;;;;;;;45.97;28.13;;;;;;;;;;5024136;28;20037;-81
2022/12/04 03:37:58;;;;;;;41.05;25.17;;;;;;;;;;4973661;28;20054;-81
2022/12/04 03:40:32;;;;;;;41.03;24.85;;;;;;;;;;5017391;28;20116;-81
2022/12/04 03:43:07;;;;;;;40.92;24.48;;;;;;;;;;5045809;28;20037;-81
2022/12/04 03:46:00;;;;;;;40.88;24.88;;;;;;;;;;5031739;28;20116;-81
2022/12/04 03:48:30;;;;;;;44.78;26.17;;;;;;;;;;5021906;28;20053;-81
2022/12/04 03:51:07;;;;;;;47.33;28.63;;;;;;;;;;5031497;28;20037;-81
2022/12/04 03:53:38;;;;;;;40.88;24.98;;;;;;;;;;5031113;28;20030;-81
2022/12/04 03:56:05;;;;;;;45.40;26.52;;;;;;;;;;5043562;28;20145;-81
2022/12/04 03:58:31;;;;;;;40.22;24.50;;;;;;;;;;5019336;28;20034;-81
2022/12/04 04:01:00;;;;;;;44.17;26.98;;;;;;;;;;5025486;28;20120;-81
2022/12/04 04:03:28;;;;;;;43.30;26.17;;;;;;;;;;5028298;28;20096;-81
2022/12/04 04:05:57;;;;;;;42.05;26.05;;;;;;;;;;5031543;28;20033;-81
2022/12/04 04:08:26;;;;;;;47.13;28.13;;;;;;;;;;5043023;28;20038;-81
2022/12/04 04:11:02;;;;;;;47.45;27.58;;;;;;;;;;5018350;28;20140;-81
2022/12/04 04:24:33;;;;;;;41.97;25.60;;;;;;;;;;5023876;28;20052;-81
2022/12/04 04:27:00;;;;;;;45.10;26.17;;;;;;;;;;5034142;28;20025;-81
2022/12/04 04:29:26;;;;;;;38.78;23.85;;;;;;;;;;5045718;28;20029;-81
2022/12/04 04:31:59;;;;;;;40.15;22.85;;;;;;;;;;5030875;28;20025;-81
2022/12/04 04:34:32;;;;;;;40.70;25.20;;;;;;;;;;5026936;28;20862;-81
2022/12/04 04:37:01;;;;;;;38.53;24.42;;;;;;;;;;5023844;28;20040;-81
2022/12/04 04:39:34;;;;;;;42.55;25.15;;;;;;;;;;5034837;28;20045;-81
2022/12/04 04:42:19;;;;;;;46.28;27.08;;;;;;;;;;5030521;28;20037;-81
2022/12/04 04:44:51;;;;;;;44.42;25.90;;;;;;;;;;5031069;28;20817;-81
2022/12/04 04:47:21;;;;;;;46.42;27.83;;;;;;;;;;5046997;28;20404;-81
2022/12/04 04:49:48;;;;;;;43.58;26.65;;;;;;;;;;5041748;28;20477;-81
2022/12/04 04:52:17;;;;;;;43.67;27.50;;;;;;;;;;5016610;28;20034;-81
2022/12/04 04:54:44;;;;;;;42.25;25.42;;;;;;;;;;5028832;28;20453;-81
2022/12/04 04:57:10;;;;;;;42.92;27.75;;;;;;;;;;5044176;28;20095;-81
2022/12/04 04:59:36;;;;;;;47.03;29.00;;;;;;;;;;5025447;28;20133;-81
2022/12/04 05:02:02;;;;;;;42.20;27.83;;;;;;;;;;5026636;28;20068;-81
2022/12/04 05:04:28;;;;;;;45.95;29.00;;;;;;;;;;5026226;28;20081;-81
2022/12/04 05:06:54;;;;;;;42.38;25.45;;;;;;;;;;5020383;28;20496;-81
2022/12/04 05:09:20;;;;;;;45.33;27.98;;;;;;;;;;5024898;28;20163;-81
2022/12/04 05:11:46;;;;;;;47.67;28.13;;;;;;;;;;5010901;28;20172;-81
2022/12/04 05:14:12;;;;;;;44.88;27.17;;;;;;;;;;5043621;28;20032;-81
2022/12/04 05:16:39;;;;;;;48.58;29.38;;;;;;;;;;5030018;28;20041;-81
2022/12/04 05:21:50;;;;;;;46.92;27.10;;;;;;;;;;5028747;28;20123;-81
2022/12/04 05:24:16;;;;;;;45.53;28.77;;;;;;;;;;5020741;28;20030;-81
2022/12/04 05:26:42;;;;;;;48.80;28.48;;;;;;;;;;5031586;28;20515;-81
2022/12/04 05:29:08;;;;;;;46.17;28.73;;;;;;;;;;5026641;28;20036;-81
2022/12/04 05:31:34;;;;;;;47.80;29.48;;;;;;;;;;5030095;28;20029;-81
2022/12/04 05:34:00;;;;;;;46.75;28.52;;;;;;;;;;5027829;28;20026;-81
2022/12/04 05:36:26;;;;;;;46.17;27.17;;;;;;;;;;5028910;28;20797;-81
2022/12/04 05:38:52;;;;;;;52.40;29.60;;;;;;;;;;5036334;28;20261;-81
2022/12/04 05:41:18;;;;;;;51.80;30.95;;;;;;;;;;5021894;28;20033;-81
2022/12/04 05:43:44;;;;;;;47.50;30.00;;;;;;;;;;5031587;28;20121;-81
2022/12/04 05:46:10;;;;;;;44.13;28.88;;;;;;;;;;5022807;28;20069;-81
2022/12/04 05:48:36;;;;;;;43.88;27.58;;;;;;;;;;5031148;28;20276;-81
2022/12/04 05:51:06;;;;;;;45.20;27.88;;;;;;;;;;5029034;28;20075;-81
2022/12/04 05:53:32;;;;;;;44.70;28.30;;;;;;;;;;5029751;28;20048;-81
2022/12/04 05:55:59;;;;;;;45.10;27.75;;;;;;;;;;5025209;28;20376;-81
2022/12/04 05:58:25;;;;;;;46.05;28.23;;;;;;;;;;5016300;28;20664;-81
2022/12/04 06:00:51;;;;;;;43.35;27.95;;;;;;;;;;5029372;28;20124;-81
2022/12/04 06:03:17;;;;;;;40.40;24.70;;;;;;;;;;5026004;28;20075;-81
2022/12/04 06:05:43;;;;;;;44.08;26.48;;;;;;;;;;5017406;28;20050;-81
2022/12/04 06:08:10;;;;;;;38.60;24.13;;;;;;;;;;5024917;28;20037;-81
2022/12/04 06:10:36;;;;;;;43.53;26.65;;;;;;;;;;5025182;28;20056;-81
2022/12/04 06:13:02;;;;;;;43.42;26.00;;;;;;;;;;5019051;28;20030;-81
2022/12/04 06:15:28;;;;;;;39.15;23.77;;;;;;;;;;5028944;28;20778;-81
2022/12/04 06:17:54;;;;;;;41.78;24.75;;;;;;;;;;5020384;28;20072;-81
2022/12/04 06:20:20;;;;;;;40.45;25.58;;;;;;;;;;5023941;28;20044;-81
2022/12/04 06:22:46;;;;;;;39.95;23.70;;;;;;;;;;5024350;28;20472;-81
2022/12/04 06:25:12;;;;;;;41.50;26.23;;;;;;;;;;5029008;28;20032;-81
2022/12/04 06:27:38;;;;;;;44.92;27.60;;;;;;;;;;5022431;28;20696;-81
2022/12/04 06:30:04;;;;;;;41.88;26.67;;;;;;;;;;5025994;28;20120;-81
2022/12/04 06:32:30;;;;;;;47.13;27.73;;;;;;;;;;5021156;28;20978;-81
2022/12/04 06:34:56;;;;;;;45.92;28.70;;;;;;;;;;5026351;28;20458;-81
2022/12/04 06:37:23;;;;;;;44.75;28.98;;;;;;;;;;5021083;28;20061;-81
2022/12/04 06:39:49;;;;;;;45.08;28.38;;;;;;;;;;5028271;28;20029;-81
2022/12/04 06:42:15;;;;;;;50.05;28.30;;;;;;;;;;5023331;28;20045;-81
2022/12/04 06:44:41;;;;;;;41.13;24.95;;;;;;;;;;5028700;28;20029;-81
2022/12/04 06:47:08;;;;;;;42.55;25.33;;;;;;;;;;5024948;28;20025;-81
2022/12/04 06:49:35;;;;;;;47.85;29.27;;;;;;;;;;5021831;28;20026;-81
2022/12/04 06:52:01;;;;;;;50.95;30.77;;;;;;;;;;5021157;28;20116;-81
2022/12/04 06:54:27;;;;;;;45.17;28.67;;;;;;;;;;5017618;28;20057;-81
2022/12/04 06:56:53;;;;;;;55.78;31.88;;;;;;;;;;5043425;28;20040;-81
2022/12/04 06:59:19;;;;;;;49.88;28.10;;;;;;;;;;5022506;28;20033;-81
2022/12/04 07:01:45;;;;;;;40.10;25.35;;;;;;;;;;5022719;28;20685;-81
2022/12/04 07:04:10;;;;;;;49.95;27.75;;;;;;;;;;5037294;28;20065;-81
2022/12/04 07:06:37;;;;;;;45.60;29.55;;;;;;;;;;5012556;28;20033;-81
2022/12/04 07:09:10;;;;;;;41.25;27.15;;;;;;;;;;5025544;28;20045;-81
2022/12/04 07:11:37;;;;;;;45.47;28.02;;;;;;;;;;5043862;28;20116;-81
2022/12/04 07:14:03;;;;;;;45.00;29.35;;;;;;;;;;5024209;28;20057;-81
2022/12/04 07:16:29;;;;;;;42.45;25.75;;;;;;;;;;5031950;28;20120;-81
2022/12/04 07:18:56;;;;;;;48.50;29.58;;;;;;;;;;5021823;28;20125;-81
2022/12/04 07:21:23;;;;;;;46.28;27.52;;;;;;;;;;5045738;28;20033;-81
2022/12/04 07:23:50;;;;;;;44.58;26.90;;;;;;;;;;5032074;28;20041;-81
2022/12/04 07:26:16;;;;;;;49.35;29.30;;;;;;;;;;5028789;28;20029;-81
2022/12/04 07:28:44;;;;;;;43.72;27.73;;;;;;;;;;5027710;28;20040;-81
2022/12/04 07:31:11;;;;;;;46.33;29.60;;;;;;;;;;5028160;28;20126;-81
2022/12/04 07:33:37;;;;;;;44.88;27.85;;;;;;;;;;5030999;28;20041;-81
2022/12/04 07:36:05;;;;;;;48.78;29.55;;;;;;;;;;5032335;28;20026;-81
2022/12/04 07:38:31;;;;;;;48.65;29.92;;;;;;;;;;5043211;28;20042;-81
2022/12/04 07:40:58;;;;;;;58.28;33.40;;;;;;;;;;5027937;28;20026;-81
2022/12/04 07:43:24;;;;;;;46.63;29.63;;;;;;;;;;5019306;28;20066;-81
2022/12/04 07:45:50;;;;;;;46.05;29.95;;;;;;;;;;5031030;28;20021;-81
2022/12/04 07:48:16;;;;;;;51.35;31.55;;;;;;;;;;5031320;28;20037;-81
2022/12/04 07:50:42;;;;;;;46.53;29.02;;;;;;;;;;5031517;28;20495;-81
2022/12/04 07:53:08;;;;;;;44.88;26.92;;;;;;;;;;5032573;28;20037;-81
2022/12/04 07:55:35;;;;;;;48.33;28.25;;;;;;;;;;5030175;28;20065;-81
2022/12/04 07:58:01;;;;;;;50.10;29.52;;;;;;;;;;5045725;28;20029;-81
2022/12/04 08:00:27;;;;;;;49.90;30.15;;;;;;;;;;5028546;28;20029;-81
2022/12/04 08:02:53;;;;;;;44.75;27.50;;;;;;;;;;5025828;28;20058;-81
2022/12/04 08:05:19;;;;;;;45.72;28.45;;;;;;;;;;5031001;28;20028;-81
2022/12/04 08:07:45;;;;;;;39.47;25.83;;;;;;;;;;5022039;28;20400;-81
2022/12/04 08:10:11;;;;;;;44.88;27.85;;;;;;;;;;5041817;28;20030;-81
2022/12/04 08:12:37;;;;;;;41.92;25.95;;;;;;;;;;5024358;28;20033;-81
2022/12/04 08:15:04;;;;;;;46.92;29.08;;;;;;;;;;5016501;28;20052;-81
2022/12/04 08:17:30;;;;;;;43.58;26.40;;;;;;;;;;5024652;28;20033;-81
2022/12/04 08:19:56;;;;;;;44.65;27.75;;;;;;;;;;5020145;28;20771;-81
2022/12/04 08:22:23;;;;;;;49.83;31.48;;;;;;;;;;5030275;28;20048;-81
2022/12/04 08:24:49;;;;;;;45.78;28.58;;;;;;;;;;5023564;28;20072;-81
2022/12/04 08:27:15;;;;;;;42.58;26.35;;;;;;;;;;5015091;28;20125;-81
2022/12/04 08:29:41;;;;;;;44.97;27.85;;;;;;;;;;5035829;28;20037;-82
2022/12/04 08:32:07;;;;;;;48.92;30.85;;;;;;;;;;5030473;28;20033;-81
2022/12/04 08:34:33;;;;;;;42.88;27.70;;;;;;;;;;5023997;28;20042;-81
2022/12/04 08:37:00;;;;;;;39.92;27.90;;;;;;;;;;5021154;28;20026;-81
2022/12/04 08:39:26;;;;;;;43.33;26.33;;;;;;;;;;5034923;28;20036;-81
2022/12/04 08:41:52;;;;;;;45.50;28.42;;;;;;;;;;5027257;28;20029;-80
2022/12/04 08:44:18;;;;;;;49.70;32.97;;;;;;;;;;5045991;28;20040;-80
2022/12/04 08:46:44;;;;;;;48.67;31.63;;;;;;;;;;5026221;28;20454;-81
2022/12/04 08:49:10;;;;;;;43.80;28.25;;;;;;;;;;5028333;28;20044;-80
2022/12/04 08:51:36;;;;;;;50.10;32.00;;;;;;;;;;5029328;28;20021;-81
2022/12/04 08:54:04;;;;;;;47.05;29.67;;;;;;;;;;5031669;28;20039;-80
2022/12/04 08:56:31;;;;;;;47.92;30.40;;;;;;;;;;5046437;28;20041;-81
2022/12/04 08:58:57;;;;;;;46.92;30.20;;;;;;;;;;5027616;28;20040;-80
2022/12/04 09:01:24;;;;;;;48.85;29.25;;;;;;;;;;5029437;28;20041;-81
2022/12/04 09:03:50;;;;;;;45.65;28.33;;;;;;;;;;5037118;28;20054;-81
2022/12/04 09:06:16;;;;;;;47.25;28.33;;;;;;;;;;5024073;28;20034;-80
2022/12/04 09:08:43;;;;;;;49.90;30.20;;;;;;;;;;5028768;28;20042;-81
2022/12/04 09:11:13;;;;;;;58.03;35.72;;;;;;;;;;5029287;28;20037;-80
2022/12/04 09:13:40;;;;;;;50.35;30.02;;;;;;;;;;5025787;28;20056;-81
2022/12/04 09:16:07;;;;;;;46.78;29.30;;;;;;;;;;5022854;28;20029;-81
2022/12/04 09:18:33;;;;;;;46.55;27.08;;;;;;;;;;5029669;28;20046;-81
2022/12/04 09:21:00;;;;;;;48.58;28.15;;;;;;;;;;5028200;28;20057;-80
2022/12/04 09:23:27;;;;;;;44.78;27.02;;;;;;;;;;5027135;28;20068;-80
2022/12/04 09:25:53;;;;;;;42.08;27.73;;;;;;;;;;5045867;28;20775;-81
2022/12/04 09:28:19;;;;;;;43.03;26.88;;;;;;;;;;5029120;28;20083;-80
2022/12/04 09:30:46;;;;;;;41.53;25.80;;;;;;;;;;5025576;28;20025;-80
2022/12/04 09:33:12;;;;;;;38.35;24.25;;;;;;;;;;5025037;28;20128;-81
2022/12/04 09:35:38;;;;;;;43.20;27.73;;;;;;;;;;5019121;28;20056;-80
2022/12/04 09:38:05;;;;;;;44.25;29.08;;;;;;;;;;5026330;28;20037;-81
2022/12/04 09:40:36;;;;;;;45.85;28.10;;;;;;;;;;5040684;28;20068;-80
2022/12/04 09:43:15;;;;;;;44.67;28.05;;;;;;;;;;5024569;28;20441;-80
2022/12/04 09:45:45;;;;;;;45.70;28.52;;;;;;;;;;5029876;28;20022;-80
2022/12/04 09:48:12;;;;;;;44.88;27.48;;;;;;;;;;5020385;28;20065;-81
2022/12/04 09:50:42;;;;;;;42.70;26.88;;;;;;;;;;5024952;28;20060;-80
2022/12/04 09:53:11;;;;;;;41.47;24.17;;;;;;;;;;5020667;28;20033;-81
2022/12/04 09:55:59;;;;;;;38.63;24.38;;;;;;;;;;5027768;28;20032;-80
2022/12/04 09:58:30;;;;;;;36.08;23.25;;;;;;;;;;5041710;28;20076;-81
2022/12/04 10:00:56;;;;;;;40.50;25.83;;;;;;;;;;5023913;28;20030;-81
2022/12/04 10:03:25;;;;;;;40.13;24.67;;;;;;;;;;5024193;28;20092;-81
2022/12/04 10:05:54;;;;;;;36.60;24.55;;;;;;;;;;5029086;28;20492;-80
2022/12/04 10:08:40;;;;;;;39.28;24.83;;;;;;;;;;5026321;28;20095;-80
2022/12/04 10:11:25;;;;;;;41.35;26.15;;;;;;;;;;5022171;28;20083;-81
2022/12/04 10:13:51;;;;;;;42.45;25.55;;;;;;;;;;5041212;28;20034;-81
2022/12/04 10:16:17;;;;;;;39.90;24.67;;;;;;;;;;5027341;28;20599;-80
2022/12/04 10:18:55;;;;;;;43.05;27.25;;;;;;;;;;5020093;28;20038;-81
2022/12/04 10:21:35;;;;;;;39.00;25.25;;;;;;;;;;5024402;28;20036;-81
2022/12/04 10:24:09;;;;;;;38.95;23.02;;;;;;;;;;5030797;28;20037;-80
2022/12/04 10:26:38;;;;;;;41.67;24.92;;;;;;;;;;5043530;28;20047;-81
2022/12/04 10:29:12;;;;;;;40.65;27.05;;;;;;;;;;5042046;28;20107;-81
2022/12/04 10:31:39;;;;;;;41.97;26.88;;;;;;;;;;5017896;28;20034;-80
2022/12/04 10:34:20;;;;;;;40.92;26.38;;;;;;;;;;5026949;28;20037;-81
2022/12/04 10:36:50;;;;;;;40.10;25.92;;;;;;;;;;5044224;28;20136;-81
2022/12/04 10:39:20;;;;;;;35.55;22.95;;;;;;;;;;5026511;28;20037;-81
2022/12/04 10:41:52;;;;;;;39.22;24.35;;;;;;;;;;5031330;28;20042;-81
2022/12/04 10:44:19;;;;;;;34.50;23.53;;;;;;;;;;5024432;28;20083;-81
2022/12/04 10:46:45;;;;;;;34.30;22.60;;;;;;;;;;5019009;28;20036;-80
2022/12/04 10:49:22;;;;;;;37.47;23.30;;;;;;;;;;5024358;28;20037;-81
2022/12/04 10:51:48;;;;;;;36.15;21.98;;;;;;;;;;5027388;28;20029;-81
2022/12/04 10:54:20;;;;;;;37.05;24.17;;;;;;;;;;5029043;28;20048;-81
2022/12/04 10:56:57;;;;;;;34.80;22.27;;;;;;;;;;5025767;28;20040;-81
2022/12/04 10:59:24;;;;;;;38.40;25.50;;;;;;;;;;5027313;28;20054;-81
2022/12/04 11:01:51;;;;;;;34.47;22.65;;;;;;;;;;5031134;28;20040;-80
2022/12/04 11:04:23;;;;;;;37.17;24.00;;;;;;;;;;5039722;28;20385;-80
2022/12/04 11:06:49;;;;;;;;;;;;;;;;;;5046298;28;20033;-81
2022/12/04 11:09:21;;;;;;;39.38;23.88;;;;;;;;;;5029719;28;19921;-80
2022/12/04 11:11:47;;;;;;;37.53;23.70;;;;;;;;;;5027938;28;20383;-80
2022/12/04 11:14:14;;;;;;;39.67;25.83;;;;;;;;;;5024266;28;20046;-81
2022/12/04 11:16:45;;;;;;;37.15;24.85;;;;;;;;;;5030850;28;20033;-81
2022/12/04 11:19:24;;;;;;;38.75;24.05;;;;;;;;;;5025693;28;20418;-81
2022/12/04 11:21:51;;;;;;;37.28;22.83;;;;;;;;;;5040887;28;20036;-81
2022/12/04 11:24:20;;;;;;;36.30;23.48;;;;;;;;;;5027126;28;20111;-80
2022/12/04 11:26:47;;;;;;;34.85;23.10;;;;;;;;;;5030307;28;20117;-81
2022/12/04 11:29:15;;;;;;;34.58;21.63;;;;;;;;;;5025527;28;20041;-81
2022/12/04 11:31:41;;;;;;;34.20;21.85;;;;;;;;;;5027989;28;20120;-81
2022/12/04 11:34:08;;;;;;;34.30;22.60;;;;;;;;;;5023421;28;20057;-81
2022/12/04 11:36:36;;;;;;;32.85;21.17;;;;;;;;;;5035687;28;20029;-81
2022/12/04 11:39:20;;;;;;;35.63;22.73;;;;;;;;;;5047472;28;20034;-81
2022/12/04 11:41:46;;;;;;;35.65;23.00;;;;;;;;;;5031009;28;20037;-81
2022/12/04 11:44:27;;;;;;;35.00;22.67;;;;;;;;;;5029186;28;20037;-81
2022/12/04 11:46:54;;;;;;;35.28;22.25;;;;;;;;;;5030267;28;20303;-80
2022/12/04 11:49:24;;;;;;;34.67;23.40;;;;;;;;;;5026244;28;20037;-80
2022/12/04 11:51:59;;;;;;;33.95;22.52;;;;;;;;;;5021330;28;20083;-81
2022/12/04 11:54:28;;;;;;;35.50;23.23;;;;;;;;;;5027422;28;20361;-80
2022/12/04 11:57:14;;;;;;;39.38;25.23;;;;;;;;;;5035318;28;20037;-81
2022/12/04 11:59:46;;;;;;;33.58;22.13;;;;;;;;;;5034874;28;20395;-81
2022/12/04 12:02:15;;;;;;;35.92;22.70;;;;;;;;;;5027692;28;20519;-81
2022/12/04 12:04:44;;;;;;;34.33;21.83;;;;;;;;;;5035280;28;20064;-81
2022/12/04 12:07:20;;;;;;;36.88;23.25;;;;;;;;;;5043358;28;20675;-81
2022/12/04 12:10:03;;;;;;;39.65;24.40;;;;;;;;;;5047148;28;20028;-81
2022/12/04 12:12:47;;;;;;;39.88;23.38;;;;;;;;;;5026225;28;20037;-81
2022/12/04 12:15:22;;;;;;;38.28;25.17;;;;;;;;;;5019712;28;20033;-81
2022/12/04 12:17:48;;;;;;;35.70;23.13;;;;;;;;;;5036447;28;20184;-81
2022/12/04 12:20:17;;;;;;;35.50;20.50;;;;;;;;;;5030901;28;20061;-81
2022/12/04 12:22:46;;;;;;;34.00;23.55;;;;;;;;;;5025031;28;20084;-81
2022/12/04 12:25:12;;;;;;;35.00;22.40;;;;;;;;;;5023116;28;20034;-81
2022/12/04 12:27:44;;;;;;;30.77;20.02;;;;;;;;;;5028393;28;20412;-81
2022/12/04 12:30:23;;;;;;;34.95;23.83;;;;;;;;;;5044617;28;20047;-81
2022/12/04 12:32:58;;;;;;;32.47;22.98;;;;;;;;;;5021911;28;20040;-81
2022/12/04 12:35:24;;;;;;;35.17;21.55;;;;;;;;;;5036266;28;20087;-81
2022/12/04 12:37:55;;;;;;;34.25;23.30;;;;;;;;;;5026670;28;20472;-81
2022/12/04 12:40:27;;;;;;;36.30;25.05;;;;;;;;;;5027514;28;20544;-81
2022/12/04 12:42:56;;;;;;;37.75;25.33;;;;;;;;;;5028162;28;20980;-81
2022/12/04 12:45:34;;;;;;;38.95;24.20;;;;;;;;;;5020246;28;20034;-81
2022/12/04 12:48:06;;;;;;;38.50;23.13;;;;;;;;;;5016605;28;20033;-80
2022/12/04 12:50:38;;;;;;;34.80;23.52;;;;;;;;;;5044995;28;20071;-80
2022/12/04 12:53:10;;;;;;;35.80;24.08;;;;;;;;;;5028740;28;20064;-80
2022/12/04 12:55:40;;;;;;;36.17;23.20;;;;;;;;;;5033644;28;20030;-81
2022/12/04 12:58:10;;;;;;;37.13;25.33;;;;;;;;;;5043240;28;20046;-80
2022/12/04 13:00:38;;;;;;;33.05;21.42;;;;;;;;;;5029999;28;20044;-81
2022/12/04 13:03:11;;;;;;;36.38;23.05;;;;;;;;;;5025427;28;20058;-81
2022/12/04 13:05:43;;;;;;;34.65;23.17;;;;;;;;;;5017398;28;20544;-80
2022/12/04 13:08:24;;;;;;;34.90;22.70;;;;;;;;;;5025461;28;20382;-81
2022/12/04 13:11:06;;;;;;;33.67;23.00;;;;;;;;;;5027735;28;20041;-81
2022/12/04 13:13:38;;;;;;;32.78;22.25;;;;;;;;;;5027509;28;20029;-81
2022/12/04 13:16:14;;;;;;;37.30;24.15;;;;;;;;;;5045238;28;20029;-81
2022/12/04 13:19:00;;;;;;;33.42;21.73;;;;;;;;;;5028658;28;20037;-81
2022/12/04 13:21:29;;;;;;;37.00;24.25;;;;;;;;;;5006989;28;20042;-81
2022/12/04 13:23:55;;;;;;;34.40;22.23;;;;;;;;;;5024304;28;20044;-81
2022/12/04 13:26:33;;;;;;;36.53;24.25;;;;;;;;;;5026930;28;20026;-81
2022/12/04 13:29:22;;;;;;;38.17;24.13;;;;;;;;;;5045589;28;20034;-81
2022/12/04 13:32:14;;;;;;;48.33;23.10;;;;;;;;;;5044134;28;20025;-81
2022/12/04 13:35:03;;;;;;;42.63;27.10;;;;;;;;;;5021011;28;20080;-81
2022/12/04 13:37:38;;;;;;;51.78;25.42;;;;;;;;;;5036926;28;20505;-81
2022/12/04 13:40:17;;;;;;;56.05;25.52;;;;;;;;;;5028447;28;20392;-81
2022/12/04 13:42:43;;;;;;;50.95;27.15;;;;;;;;;;5020515;28;20045;-81
2022/12/04 13:45:23;;;;;;;41.33;25.27;;;;;;;;;;5039982;28;20053;-81
2022/12/04 13:47:56;;;;;;;36.78;25.23;;;;;;;;;;5042144;28;20049;-81
2022/12/04 13:50:22;;;;;;;36.25;24.38;;;;;;;;;;5033263;28;20030;-80
2022/12/04 13:52:48;;;;;;;35.88;22.40;;;;;;;;;;5027472;28;20051;-81
2022/12/04 13:55:34;;;;;;;34.58;23.40;;;;;;;;;;5024025;28;20026;-81
2022/12/04 13:58:02;;;;;;;32.55;22.42;;;;;;;;;;5022388;28;20148;-81
2022/12/04 14:00:30;;;;;;;32.40;22.77;;;;;;;;;;5028082;28;20022;-81
2022/12/04 14:02:58;;;;;;;32.58;22.13;;;;;;;;;;5027248;28;20175;-80
2022/12/04 14:05:42;;;;;;;32.95;21.55;;;;;;;;;;5025750;28;20037;-81
2022/12/04 14:08:30;;;;;;;31.30;20.90;;;;;;;;;;5023417;28;20180;-81
2022/12/04 14:10:59;;;;;;;31.10;21.70;;;;;;;;;;5029491;28;20049;-80
2022/12/04 14:13:28;;;;;;;28.15;20.33;;;;;;;;;;5030183;28;20037;-80
2022/12/04 14:16:09;;;;;;;31.02;21.85;;;;;;;;;;5012206;28;20037;-80
2022/12/04 14:18:35;;;;;;;33.50;21.95;;;;;;;;;;5025532;28;20033;-80
2022/12/04 14:21:33;;;;;;;30.70;20.42;;;;;;;;;;5028117;23;20428;-80
2022/12/04 14:24:28;;;;;;;;;;;;;;;;;;;;;
2022/12/04 14:29:49;;;;;;;37.22;24.40;;;;;;;;;;5025830;28;20111;-81
2022/12/04 14:32:20;;;;;;;35.30;24.10;;;;;;;;;;5025568;28;20143;-81
2022/12/04 14:34:47;;;;;;;30.27;20.85;;;;;;;;;;5018258;28;20052;-81
2022/12/04 14:37:54;;;;;;;33.10;21.08;;;;;;;;;;5019437;28;20608;-81
2022/12/04 14:40:52;;;;;;;30.05;21.20;;;;;;;;;;4986025;28;20145;-81
2022/12/04 14:43:35;;;;;;;33.05;23.02;;;;;;;;;;4961316;28;20137;-81
2022/12/04 14:46:01;;;;;;;;;;;;;;;;;;5021324;23;20048;-80
2022/12/04 14:48:39;;;;;;;32.38;22.08;;;;;;;;;;5010233;28;19917;-80
2022/12/04 14:51:22;;;;;;;31.45;21.80;;;;;;;;;;5023710;28;20071;-80